sensor_id;sensor_type;location;lat;lon;timestamp;temperature;humidity
31677;DHT22;18385;51.572;6.578;2023-07-31T00:01:49;19.70;67.40
31677;DHT22;18385;51.572;6.578;2023-07-31T00:04:15;19.60;67.60
31677;DHT22;18385;51.572;6.578;2023-07-31T00:06:40;19.70;67.90
31677;DHT22;18385;51.572;6.578;2023-07-31T00:09:06;19.70;68.00
31677;DHT22;18385;51.572;6.578;2023-07-31T00:11:33;19.70;68.00
31677;DHT22;18385;51.572;6.578;2023-07-31T00:13:59;19.80;68.10
31677;DHT22;18385;51.572;6.578;2023-07-31T00:16:25;19.90;68.20
31677;DHT22;18385;51.572;6.578;2023-07-31T00:18:52;19.90;68.20
31677;DHT22;18385;51.572;6.578;2023-07-31T00:21:18;19.90;68.10
31677;DHT22;18385;51.572;6.578;2023-07-31T00:23:45;19.90;68.20
31677;DHT22;18385;51.572;6.578;2023-07-31T00:26:12;19.90;68.30
31677;DHT22;18385;51.572;6.578;2023-07-31T00:28:39;19.90;68.20
31677;DHT22;18385;51.572;6.578;2023-07-31T00:31:08;19.90;68.10
31677;DHT22;18385;51.572;6.578;2023-07-31T00:33:34;20.00;68.30
31677;DHT22;18385;51.572;6.578;2023-07-31T00:36:02;20.00;68.30
31677;DHT22;18385;51.572;6.578;2023-07-31T00:38:28;20.00;68.40
31677;DHT22;18385;51.572;6.578;2023-07-31T00:40:55;20.00;68.30
31677;DHT22;18385;51.572;6.578;2023-07-31T00:43:21;20.10;68.30
31677;DHT22;18385;51.572;6.578;2023-07-31T00:45:50;20.10;68.40
31677;DHT22;18385;51.572;6.578;2023-07-31T00:48:15;20.10;68.40
31677;DHT22;18385;51.572;6.578;2023-07-31T00:50:41;20.10;68.30
31677;DHT22;18385;51.572;6.578;2023-07-31T00:53:07;20.10;68.30
31677;DHT22;18385;51.572;6.578;2023-07-31T00:55:35;20.20;68.40
31677;DHT22;18385;51.572;6.578;2023-07-31T00:58:02;20.20;68.40
31677;DHT22;18385;51.572;6.578;2023-07-31T01:00:30;20.20;68.50
31677;DHT22;18385;51.572;6.578;2023-07-31T01:02:58;20.20;68.50
31677;DHT22;18385;51.572;6.578;2023-07-31T01:06:14;20.20;68.50
31677;DHT22;18385;51.572;6.578;2023-07-31T01:09:11;20.20;68.30
31677;DHT22;18385;51.572;6.578;2023-07-31T01:11:53;20.10;68.40
31677;DHT22;18385;51.572;6.578;2023-07-31T01:14:20;20.10;68.50
31677;DHT22;18385;51.572;6.578;2023-07-31T01:16:46;20.20;68.60
31677;DHT22;18385;51.572;6.578;2023-07-31T01:19:14;20.20;68.60
31677;DHT22;18385;51.572;6.578;2023-07-31T01:22:12;20.20;68.50
31677;DHT22;18385;51.572;6.578;2023-07-31T01:27:31;20.30;68.40
31677;DHT22;18385;51.572;6.578;2023-07-31T01:30:07;20.30;68.40
31677;DHT22;18385;51.572;6.578;2023-07-31T01:32:39;20.30;68.40
31677;DHT22;18385;51.572;6.578;2023-07-31T01:35:06;20.30;68.50
31677;DHT22;18385;51.572;6.578;2023-07-31T01:37:32;20.20;68.50
31677;DHT22;18385;51.572;6.578;2023-07-31T01:40:04;20.20;68.50
31677;DHT22;18385;51.572;6.578;2023-07-31T01:42:30;20.20;68.60
31677;DHT22;18385;51.572;6.578;2023-07-31T01:44:56;20.20;68.60
31677;DHT22;18385;51.572;6.578;2023-07-31T01:47:22;20.30;68.60
31677;DHT22;18385;51.572;6.578;2023-07-31T01:49:49;20.30;68.60
31677;DHT22;18385;51.572;6.578;2023-07-31T01:52:15;20.20;68.50
31677;DHT22;18385;51.572;6.578;2023-07-31T01:54:41;20.20;68.50
31677;DHT22;18385;51.572;6.578;2023-07-31T01:57:07;20.20;68.50
31677;DHT22;18385;51.572;6.578;2023-07-31T01:59:33;20.30;68.50
31677;DHT22;18385;51.572;6.578;2023-07-31T02:01:59;20.30;68.50
31677;DHT22;18385;51.572;6.578;2023-07-31T02:04:24;20.30;68.50
31677;DHT22;18385;51.572;6.578;2023-07-31T02:06:50;20.30;68.60
31677;DHT22;18385;51.572;6.578;2023-07-31T02:09:16;20.30;68.50
31677;DHT22;18385;51.572;6.578;2023-07-31T02:11:41;20.30;68.60
31677;DHT22;18385;51.572;6.578;2023-07-31T02:14:07;20.30;68.60
31677;DHT22;18385;51.572;6.578;2023-07-31T02:16:33;20.30;68.50
31677;DHT22;18385;51.572;6.578;2023-07-31T02:19:00;20.30;68.50
31677;DHT22;18385;51.572;6.578;2023-07-31T02:21:26;20.30;68.50
31677;DHT22;18385;51.572;6.578;2023-07-31T02:23:51;20.30;68.50
31677;DHT22;18385;51.572;6.578;2023-07-31T02:26:18;20.30;68.40
31677;DHT22;18385;51.572;6.578;2023-07-31T02:28:44;20.30;68.40
31677;DHT22;18385;51.572;6.578;2023-07-31T02:31:11;20.30;68.40
31677;DHT22;18385;51.572;6.578;2023-07-31T02:33:36;20.30;68.40
31677;DHT22;18385;51.572;6.578;2023-07-31T02:36:02;20.20;68.30
31677;DHT22;18385;51.572;6.578;2023-07-31T02:38:28;20.20;68.40
31677;DHT22;18385;51.572;6.578;2023-07-31T02:40:53;20.20;68.40
31677;DHT22;18385;51.572;6.578;2023-07-31T02:43:19;20.20;68.50
31677;DHT22;18385;51.572;6.578;2023-07-31T02:45:48;20.20;68.40
31677;DHT22;18385;51.572;6.578;2023-07-31T02:48:16;20.20;68.40
31677;DHT22;18385;51.572;6.578;2023-07-31T02:50:41;20.20;68.40
31677;DHT22;18385;51.572;6.578;2023-07-31T02:53:07;20.20;68.40
31677;DHT22;18385;51.572;6.578;2023-07-31T02:55:32;20.20;68.30
31677;DHT22;18385;51.572;6.578;2023-07-31T02:57:58;20.20;68.30
31677;DHT22;18385;51.572;6.578;2023-07-31T03:00:24;20.10;68.20
31677;DHT22;18385;51.572;6.578;2023-07-31T03:02:50;20.10;68.30
31677;DHT22;18385;51.572;6.578;2023-07-31T03:05:15;20.10;68.20
31677;DHT22;18385;51.572;6.578;2023-07-31T03:07:41;20.10;68.20
31677;DHT22;18385;51.572;6.578;2023-07-31T03:10:07;20.10;68.20
31677;DHT22;18385;51.572;6.578;2023-07-31T03:12:33;20.10;68.10
31677;DHT22;18385;51.572;6.578;2023-07-31T03:14:59;20.20;68.20
31677;DHT22;18385;51.572;6.578;2023-07-31T03:17:25;20.10;68.10
31677;DHT22;18385;51.572;6.578;2023-07-31T03:19:50;20.10;68.10
31677;DHT22;18385;51.572;6.578;2023-07-31T03:22:16;20.10;68.10
31677;DHT22;18385;51.572;6.578;2023-07-31T03:24:42;20.20;68.10
31677;DHT22;18385;51.572;6.578;2023-07-31T03:27:07;20.20;68.00
31677;DHT22;18385;51.572;6.578;2023-07-31T03:29:33;20.20;68.10
31677;DHT22;18385;51.572;6.578;2023-07-31T03:31:59;20.10;68.00
31677;DHT22;18385;51.572;6.578;2023-07-31T03:34:26;20.20;68.10
31677;DHT22;18385;51.572;6.578;2023-07-31T03:36:51;20.20;68.00
31677;DHT22;18385;51.572;6.578;2023-07-31T03:39:17;20.20;68.00
31677;DHT22;18385;51.572;6.578;2023-07-31T03:41:43;20.20;68.00
31677;DHT22;18385;51.572;6.578;2023-07-31T03:44:09;20.20;68.00
31677;DHT22;18385;51.572;6.578;2023-07-31T03:46:34;20.20;68.00
31677;DHT22;18385;51.572;6.578;2023-07-31T03:49:01;20.20;68.00
31677;DHT22;18385;51.572;6.578;2023-07-31T03:51:27;20.20;68.00
31677;DHT22;18385;51.572;6.578;2023-07-31T03:53:53;20.20;68.00
31677;DHT22;18385;51.572;6.578;2023-07-31T03:56:18;20.20;68.00
31677;DHT22;18385;51.572;6.578;2023-07-31T03:58:44;20.20;67.90
31677;DHT22;18385;51.572;6.578;2023-07-31T04:01:09;20.20;68.00
31677;DHT22;18385;51.572;6.578;2023-07-31T04:03:35;20.20;67.90
31677;DHT22;18385;51.572;6.578;2023-07-31T04:06:01;20.30;68.00
31677;DHT22;18385;51.572;6.578;2023-07-31T04:08:26;20.30;67.90
31677;DHT22;18385;51.572;6.578;2023-07-31T04:10:52;20.30;67.80
31677;DHT22;18385;51.572;6.578;2023-07-31T04:13:18;20.40;67.90
31677;DHT22;18385;51.572;6.578;2023-07-31T04:15:48;20.40;67.80
31677;DHT22;18385;51.572;6.578;2023-07-31T04:18:15;20.40;67.80
31677;DHT22;18385;51.572;6.578;2023-07-31T04:20:41;20.40;67.70
31677;DHT22;18385;51.572;6.578;2023-07-31T04:23:06;20.40;67.60
31677;DHT22;18385;51.572;6.578;2023-07-31T04:25:32;20.50;67.70
31677;DHT22;18385;51.572;6.578;2023-07-31T04:28:00;20.50;67.60
31677;DHT22;18385;51.572;6.578;2023-07-31T04:30:26;20.40;67.50
31677;DHT22;18385;51.572;6.578;2023-07-31T04:32:51;20.40;67.60
31677;DHT22;18385;51.572;6.578;2023-07-31T04:35:17;20.40;67.70
31677;DHT22;18385;51.572;6.578;2023-07-31T04:37:43;20.40;67.80
31677;DHT22;18385;51.572;6.578;2023-07-31T04:40:10;20.40;67.80
31677;DHT22;18385;51.572;6.578;2023-07-31T04:42:36;20.50;67.90
31677;DHT22;18385;51.572;6.578;2023-07-31T04:45:01;20.50;67.90
31677;DHT22;18385;51.572;6.578;2023-07-31T04:47:27;20.50;67.80
31677;DHT22;18385;51.572;6.578;2023-07-31T04:49:53;20.60;67.90
31677;DHT22;18385;51.572;6.578;2023-07-31T04:52:18;20.60;67.80
31677;DHT22;18385;51.572;6.578;2023-07-31T04:54:44;20.70;67.80
31677;DHT22;18385;51.572;6.578;2023-07-31T04:57:09;20.70;67.70
31677;DHT22;18385;51.572;6.578;2023-07-31T04:59:35;20.70;67.70
31677;DHT22;18385;51.572;6.578;2023-07-31T05:02:01;20.80;67.90
31677;DHT22;18385;51.572;6.578;2023-07-31T05:04:26;20.80;67.70
31677;DHT22;18385;51.572;6.578;2023-07-31T05:06:52;20.90;67.70
31677;DHT22;18385;51.572;6.578;2023-07-31T05:09:18;20.90;67.60
31677;DHT22;18385;51.572;6.578;2023-07-31T05:11:43;21.00;67.50
31677;DHT22;18385;51.572;6.578;2023-07-31T05:14:09;21.00;67.40
31677;DHT22;18385;51.572;6.578;2023-07-31T05:16:35;21.00;67.30
31677;DHT22;18385;51.572;6.578;2023-07-31T05:19:01;21.00;67.30
31677;DHT22;18385;51.572;6.578;2023-07-31T05:21:26;21.00;67.40
31677;DHT22;18385;51.572;6.578;2023-07-31T05:23:53;21.00;67.50
31677;DHT22;18385;51.572;6.578;2023-07-31T05:26:18;21.00;67.40
31677;DHT22;18385;51.572;6.578;2023-07-31T05:28:44;21.00;67.40
31677;DHT22;18385;51.572;6.578;2023-07-31T05:31:09;21.10;67.50
31677;DHT22;18385;51.572;6.578;2023-07-31T05:33:35;21.10;67.50
31677;DHT22;18385;51.572;6.578;2023-07-31T05:36:01;21.10;67.50
31677;DHT22;18385;51.572;6.578;2023-07-31T05:38:26;21.10;67.40
31677;DHT22;18385;51.572;6.578;2023-07-31T05:40:52;21.20;67.40
31677;DHT22;18385;51.572;6.578;2023-07-31T05:43:18;21.20;67.30
31677;DHT22;18385;51.572;6.578;2023-07-31T05:45:44;21.20;67.30
31677;DHT22;18385;51.572;6.578;2023-07-31T05:48:10;21.20;67.20
31677;DHT22;18385;51.572;6.578;2023-07-31T05:50:35;21.20;67.10
31677;DHT22;18385;51.572;6.578;2023-07-31T05:53:02;21.20;67.20
31677;DHT22;18385;51.572;6.578;2023-07-31T05:55:28;21.20;67.20
31677;DHT22;18385;51.572;6.578;2023-07-31T05:57:54;21.30;67.20
31677;DHT22;18385;51.572;6.578;2023-07-31T06:00:20;21.30;67.10
31677;DHT22;18385;51.572;6.578;2023-07-31T06:02:47;21.30;67.00
31677;DHT22;18385;51.572;6.578;2023-07-31T06:05:13;21.30;67.00
31677;DHT22;18385;51.572;6.578;2023-07-31T06:07:38;21.20;67.80
31677;DHT22;18385;51.572;6.578;2023-07-31T06:10:04;21.10;67.00
31677;DHT22;18385;51.572;6.578;2023-07-31T06:12:32;21.00;67.20
31677;DHT22;18385;51.572;6.578;2023-07-31T06:14:58;20.90;67.60
31677;DHT22;18385;51.572;6.578;2023-07-31T06:17:24;20.80;67.90
31677;DHT22;18385;51.572;6.578;2023-07-31T06:19:50;20.80;68.10
31677;DHT22;18385;51.572;6.578;2023-07-31T06:22:16;20.80;68.10
31677;DHT22;18385;51.572;6.578;2023-07-31T06:24:42;20.80;68.20
31677;DHT22;18385;51.572;6.578;2023-07-31T06:27:07;20.90;68.30
31677;DHT22;18385;51.572;6.578;2023-07-31T06:29:33;20.90;68.30
31677;DHT22;18385;51.572;6.578;2023-07-31T06:31:59;21.00;68.30
31677;DHT22;18385;51.572;6.578;2023-07-31T06:34:24;21.00;68.20
31677;DHT22;18385;51.572;6.578;2023-07-31T06:36:50;21.00;68.10
31677;DHT22;18385;51.572;6.578;2023-07-31T06:39:16;21.10;68.20
31677;DHT22;18385;51.572;6.578;2023-07-31T06:41:44;21.10;68.20
31677;DHT22;18385;51.572;6.578;2023-07-31T06:44:10;21.00;68.00
31677;DHT22;18385;51.572;6.578;2023-07-31T06:46:36;21.00;68.20
31677;DHT22;18385;51.572;6.578;2023-07-31T06:49:01;21.00;68.30
31677;DHT22;18385;51.572;6.578;2023-07-31T06:51:27;20.90;68.30
31677;DHT22;18385;51.572;6.578;2023-07-31T06:53:53;20.90;68.60
31677;DHT22;18385;51.572;6.578;2023-07-31T06:56:18;20.80;68.80
31677;DHT22;18385;51.572;6.578;2023-07-31T06:58:44;20.80;68.90
31677;DHT22;18385;51.572;6.578;2023-07-31T07:01:10;20.80;69.10
31677;DHT22;18385;51.572;6.578;2023-07-31T07:03:35;20.80;69.20
31677;DHT22;18385;51.572;6.578;2023-07-31T07:06:01;20.80;69.30
31677;DHT22;18385;51.572;6.578;2023-07-31T07:08:27;20.90;69.30
31677;DHT22;18385;51.572;6.578;2023-07-31T07:10:52;20.90;69.40
31677;DHT22;18385;51.572;6.578;2023-07-31T07:13:18;20.90;69.50
31677;DHT22;18385;51.572;6.578;2023-07-31T07:15:50;20.90;69.50
31677;DHT22;18385;51.572;6.578;2023-07-31T07:18:17;20.80;69.50
31677;DHT22;18385;51.572;6.578;2023-07-31T07:20:53;20.80;69.60
31677;DHT22;18385;51.572;6.578;2023-07-31T07:23:19;20.80;69.60
31677;DHT22;18385;51.572;6.578;2023-07-31T07:25:46;20.70;70.60
31677;DHT22;18385;51.572;6.578;2023-07-31T07:28:12;20.70;69.90
31677;DHT22;18385;51.572;6.578;2023-07-31T07:30:38;20.70;69.90
31677;DHT22;18385;51.572;6.578;2023-07-31T07:33:04;20.80;70.00
31677;DHT22;18385;51.572;6.578;2023-07-31T07:35:33;20.80;70.10
31677;DHT22;18385;51.572;6.578;2023-07-31T07:37:58;20.80;70.10
31677;DHT22;18385;51.572;6.578;2023-07-31T07:40:25;20.90;70.00
31677;DHT22;18385;51.572;6.578;2023-07-31T07:43:22;20.90;70.00
31677;DHT22;18385;51.572;6.578;2023-07-31T07:46:22;20.80;69.90
31677;DHT22;18385;51.572;6.578;2023-07-31T07:49:14;20.70;70.00
31677;DHT22;18385;51.572;6.578;2023-07-31T07:51:39;20.70;70.20
31677;DHT22;18385;51.572;6.578;2023-07-31T07:54:05;20.70;70.30
31677;DHT22;18385;51.572;6.578;2023-07-31T07:56:32;20.70;70.30
31677;DHT22;18385;51.572;6.578;2023-07-31T07:58:58;20.80;70.20
31677;DHT22;18385;51.572;6.578;2023-07-31T08:01:24;20.70;70.60
31677;DHT22;18385;51.572;6.578;2023-07-31T08:03:50;20.80;70.40
31677;DHT22;18385;51.572;6.578;2023-07-31T08:06:15;20.90;70.20
31677;DHT22;18385;51.572;6.578;2023-07-31T08:08:41;20.90;70.10
31677;DHT22;18385;51.572;6.578;2023-07-31T08:11:07;21.10;70.40
31677;DHT22;18385;51.572;6.578;2023-07-31T08:13:33;21.20;70.20
31677;DHT22;18385;51.572;6.578;2023-07-31T08:15:58;21.30;69.90
31677;DHT22;18385;51.572;6.578;2023-07-31T08:18:24;21.40;69.90
31677;DHT22;18385;51.572;6.578;2023-07-31T08:20:50;21.50;69.70
31677;DHT22;18385;51.572;6.578;2023-07-31T08:23:16;21.50;69.40
31677;DHT22;18385;51.572;6.578;2023-07-31T08:25:41;21.70;69.50
31677;DHT22;18385;51.572;6.578;2023-07-31T08:28:07;21.70;69.10
31677;DHT22;18385;51.572;6.578;2023-07-31T08:30:33;21.80;68.90
31677;DHT22;18385;51.572;6.578;2023-07-31T08:32:59;21.80;68.70
31677;DHT22;18385;51.572;6.578;2023-07-31T08:35:26;21.80;68.70
31677;DHT22;18385;51.572;6.578;2023-07-31T08:37:53;21.80;68.60
31677;DHT22;18385;51.572;6.578;2023-07-31T08:40:19;21.80;68.40
31677;DHT22;18385;51.572;6.578;2023-07-31T08:42:47;21.70;68.40
31677;DHT22;18385;51.572;6.578;2023-07-31T08:45:18;21.60;68.50
31677;DHT22;18385;51.572;6.578;2023-07-31T08:47:49;21.50;68.50
31677;DHT22;18385;51.572;6.578;2023-07-31T08:50:17;21.50;68.60
31677;DHT22;18385;51.572;6.578;2023-07-31T08:52:43;21.50;68.80
31677;DHT22;18385;51.572;6.578;2023-07-31T08:55:09;21.60;68.90
31677;DHT22;18385;51.572;6.578;2023-07-31T08:57:37;21.70;68.90
31677;DHT22;18385;51.572;6.578;2023-07-31T09:00:04;21.70;68.60
31677;DHT22;18385;51.572;6.578;2023-07-31T09:02:56;21.70;68.70
31677;DHT22;18385;51.572;6.578;2023-07-31T09:05:23;21.70;68.30
31677;DHT22;18385;51.572;6.578;2023-07-31T09:07:50;21.60;68.20
31677;DHT22;18385;51.572;6.578;2023-07-31T09:10:19;21.60;68.40
31677;DHT22;18385;51.572;6.578;2023-07-31T09:12:45;21.50;68.50
31677;DHT22;18385;51.572;6.578;2023-07-31T09:15:15;21.50;68.60
31677;DHT22;18385;51.572;6.578;2023-07-31T09:17:40;21.50;68.80
31677;DHT22;18385;51.572;6.578;2023-07-31T09:20:14;21.50;69.10
31677;DHT22;18385;51.572;6.578;2023-07-31T09:22:40;21.60;68.80
31677;DHT22;18385;51.572;6.578;2023-07-31T09:25:19;21.60;68.80
31677;DHT22;18385;51.572;6.578;2023-07-31T09:30:13;21.80;69.10
31677;DHT22;18385;51.572;6.578;2023-07-31T09:32:38;22.00;69.10
31677;DHT22;18385;51.572;6.578;2023-07-31T09:35:31;22.10;68.60
31677;DHT22;18385;51.572;6.578;2023-07-31T09:37:59;22.20;68.20
31677;DHT22;18385;51.572;6.578;2023-07-31T09:40:54;22.30;68.20
31677;DHT22;18385;51.572;6.578;2023-07-31T09:43:21;22.40;68.00
31677;DHT22;18385;51.572;6.578;2023-07-31T09:45:47;22.40;67.90
31677;DHT22;18385;51.572;6.578;2023-07-31T09:48:14;22.50;67.90
31677;DHT22;18385;51.572;6.578;2023-07-31T09:50:45;22.50;67.60
31677;DHT22;18385;51.572;6.578;2023-07-31T09:53:11;22.50;67.90
31677;DHT22;18385;51.572;6.578;2023-07-31T09:55:38;22.60;68.00
31677;DHT22;18385;51.572;6.578;2023-07-31T09:58:06;22.60;67.70
31677;DHT22;18385;51.572;6.578;2023-07-31T10:00:32;22.50;67.50
31677;DHT22;18385;51.572;6.578;2023-07-31T10:02:59;22.40;67.60
31677;DHT22;18385;51.572;6.578;2023-07-31T10:05:31;22.20;67.60
31677;DHT22;18385;51.572;6.578;2023-07-31T10:07:59;22.10;67.90
31677;DHT22;18385;51.572;6.578;2023-07-31T10:10:26;22.00;68.20
31677;DHT22;18385;51.572;6.578;2023-07-31T10:12:53;22.10;68.60
31677;DHT22;18385;51.572;6.578;2023-07-31T10:15:20;22.20;68.50
31677;DHT22;18385;51.572;6.578;2023-07-31T10:17:50;22.30;68.20
31677;DHT22;18385;51.572;6.578;2023-07-31T10:20:16;22.30;68.10
31677;DHT22;18385;51.572;6.578;2023-07-31T10:22:43;22.30;67.90
31677;DHT22;18385;51.572;6.578;2023-07-31T10:25:09;22.30;68.20
31677;DHT22;18385;51.572;6.578;2023-07-31T10:27:36;22.40;68.00
31677;DHT22;18385;51.572;6.578;2023-07-31T10:30:06;22.40;68.00
31677;DHT22;18385;51.572;6.578;2023-07-31T10:32:33;22.40;68.00
31677;DHT22;18385;51.572;6.578;2023-07-31T10:35:01;22.40;68.00
31677;DHT22;18385;51.572;6.578;2023-07-31T10:37:29;22.50;67.80
31677;DHT22;18385;51.572;6.578;2023-07-31T10:42:47;22.40;67.80
31677;DHT22;18385;51.572;6.578;2023-07-31T10:45:13;22.60;67.90
31677;DHT22;18385;51.572;6.578;2023-07-31T10:47:43;22.80;68.40
31677;DHT22;18385;51.572;6.578;2023-07-31T10:50:20;22.90;67.20
31677;DHT22;18385;51.572;6.578;2023-07-31T10:52:55;22.90;67.00
31677;DHT22;18385;51.572;6.578;2023-07-31T10:55:33;23.00;66.80
31677;DHT22;18385;51.572;6.578;2023-07-31T10:58:09;23.00;66.60
31677;DHT22;18385;51.572;6.578;2023-07-31T11:00:45;22.90;66.50
31677;DHT22;18385;51.572;6.578;2023-07-31T11:03:17;22.90;66.60
31677;DHT22;18385;51.572;6.578;2023-07-31T11:05:55;22.90;66.90
31677;DHT22;18385;51.572;6.578;2023-07-31T11:08:26;22.90;66.90
31677;DHT22;18385;51.572;6.578;2023-07-31T11:11:06;23.00;66.70
31677;DHT22;18385;51.572;6.578;2023-07-31T11:13:33;23.10;66.60
31677;DHT22;18385;51.572;6.578;2023-07-31T11:16:00;23.00;66.40
31677;DHT22;18385;51.572;6.578;2023-07-31T11:18:26;23.00;66.50
31677;DHT22;18385;51.572;6.578;2023-07-31T11:20:52;23.00;66.60
31677;DHT22;18385;51.572;6.578;2023-07-31T11:23:19;22.90;66.60
31677;DHT22;18385;51.572;6.578;2023-07-31T11:25:45;23.10;66.90
31677;DHT22;18385;51.572;6.578;2023-07-31T11:28:13;23.40;66.80
31677;DHT22;18385;51.572;6.578;2023-07-31T11:30:40;23.70;66.50
31677;DHT22;18385;51.572;6.578;2023-07-31T11:33:07;23.80;65.80
31677;DHT22;18385;51.572;6.578;2023-07-31T11:35:35;24.00;65.30
31677;DHT22;18385;51.572;6.578;2023-07-31T11:38:02;23.90;65.10
31677;DHT22;18385;51.572;6.578;2023-07-31T11:40:28;23.70;65.10
31677;DHT22;18385;51.572;6.578;2023-07-31T11:43:04;23.50;65.30
31677;DHT22;18385;51.572;6.578;2023-07-31T11:45:30;23.50;65.70
31677;DHT22;18385;51.572;6.578;2023-07-31T11:47:56;23.50;65.90
31677;DHT22;18385;51.572;6.578;2023-07-31T11:50:23;23.60;65.90
31677;DHT22;18385;51.572;6.578;2023-07-31T11:53:00;23.70;65.70
31677;DHT22;18385;51.572;6.578;2023-07-31T11:55:26;23.80;65.50
31677;DHT22;18385;51.572;6.578;2023-07-31T11:57:54;23.80;65.40
31677;DHT22;18385;51.572;6.578;2023-07-31T12:00:21;23.70;65.10
31677;DHT22;18385;51.572;6.578;2023-07-31T12:02:47;23.70;65.20
31677;DHT22;18385;51.572;6.578;2023-07-31T12:05:13;23.70;65.30
31677;DHT22;18385;51.572;6.578;2023-07-31T12:07:53;23.70;65.10
31677;DHT22;18385;51.572;6.578;2023-07-31T12:10:30;23.90;65.10
31677;DHT22;18385;51.572;6.578;2023-07-31T12:13:02;24.00;64.80
31677;DHT22;18385;51.572;6.578;2023-07-31T12:15:39;23.90;64.70
31677;DHT22;18385;51.572;6.578;2023-07-31T12:18:07;23.90;64.80
31677;DHT22;18385;51.572;6.578;2023-07-31T12:20:34;23.90;64.80
31677;DHT22;18385;51.572;6.578;2023-07-31T12:22:59;23.90;64.80
31677;DHT22;18385;51.572;6.578;2023-07-31T12:25:29;24.10;65.20
31677;DHT22;18385;51.572;6.578;2023-07-31T12:27:55;24.30;65.40
31677;DHT22;18385;51.572;6.578;2023-07-31T12:30:32;24.40;65.00
31677;DHT22;18385;51.572;6.578;2023-07-31T12:33:14;24.60;64.00
31677;DHT22;18385;51.572;6.578;2023-07-31T12:35:43;24.90;63.80
31677;DHT22;18385;51.572;6.578;2023-07-31T12:38:09;25.00;63.40
31677;DHT22;18385;51.572;6.578;2023-07-31T12:40:37;25.00;62.90
31677;DHT22;18385;51.572;6.578;2023-07-31T12:43:04;24.70;62.60
31677;DHT22;18385;51.572;6.578;2023-07-31T12:45:31;24.40;62.90
31677;DHT22;18385;51.572;6.578;2023-07-31T12:47:58;24.10;63.20
31677;DHT22;18385;51.572;6.578;2023-07-31T12:50:24;23.90;63.90
31677;DHT22;18385;51.572;6.578;2023-07-31T12:52:51;23.80;64.20
31677;DHT22;18385;51.572;6.578;2023-07-31T12:55:17;23.70;64.30
31677;DHT22;18385;51.572;6.578;2023-07-31T12:57:44;23.50;64.40
31677;DHT22;18385;51.572;6.578;2023-07-31T13:00:10;23.40;64.80
31677;DHT22;18385;51.572;6.578;2023-07-31T13:02:36;23.50;65.40
31677;DHT22;18385;51.572;6.578;2023-07-31T13:05:02;23.70;65.30
31677;DHT22;18385;51.572;6.578;2023-07-31T13:07:28;23.80;65.00
31677;DHT22;18385;51.572;6.578;2023-07-31T13:09:53;23.90;64.70
31677;DHT22;18385;51.572;6.578;2023-07-31T13:12:19;23.90;64.70
31677;DHT22;18385;51.572;6.578;2023-07-31T13:14:45;23.80;64.60
31677;DHT22;18385;51.572;6.578;2023-07-31T13:17:10;23.80;64.70
31677;DHT22;18385;51.572;6.578;2023-07-31T13:19:36;23.70;64.60
31677;DHT22;18385;51.572;6.578;2023-07-31T13:22:02;23.50;64.60
31677;DHT22;18385;51.572;6.578;2023-07-31T13:24:27;23.30;65.00
31677;DHT22;18385;51.572;6.578;2023-07-31T13:26:53;23.20;65.20
31677;DHT22;18385;51.572;6.578;2023-07-31T13:29:19;23.20;65.40
31677;DHT22;18385;51.572;6.578;2023-07-31T13:31:44;23.20;65.50
31677;DHT22;18385;51.572;6.578;2023-07-31T13:34:10;23.20;65.60
31677;DHT22;18385;51.572;6.578;2023-07-31T13:36:35;23.30;65.70
31677;DHT22;18385;51.572;6.578;2023-07-31T13:39:02;23.40;65.60
31677;DHT22;18385;51.572;6.578;2023-07-31T13:41:28;23.50;65.50
31677;DHT22;18385;51.572;6.578;2023-07-31T13:43:54;23.60;65.40
31677;DHT22;18385;51.572;6.578;2023-07-31T13:46:19;23.60;65.20
31677;DHT22;18385;51.572;6.578;2023-07-31T13:48:45;23.60;65.20
31677;DHT22;18385;51.572;6.578;2023-07-31T13:51:11;23.60;65.10
31677;DHT22;18385;51.572;6.578;2023-07-31T13:53:36;23.70;65.20
31677;DHT22;18385;51.572;6.578;2023-07-31T13:56:02;23.70;65.20
31677;DHT22;18385;51.572;6.578;2023-07-31T13:58:28;23.80;65.40
31677;DHT22;18385;51.572;6.578;2023-07-31T14:00:54;24.10;65.20
31677;DHT22;18385;51.572;6.578;2023-07-31T14:03:21;24.50;65.00
31677;DHT22;18385;51.572;6.578;2023-07-31T14:05:47;24.80;64.30
31677;DHT22;18385;51.572;6.578;2023-07-31T14:08:13;25.30;64.40
31677;DHT22;18385;51.572;6.578;2023-07-31T14:10:39;25.70;63.20
31677;DHT22;18385;51.572;6.578;2023-07-31T14:13:04;25.70;62.30
31677;DHT22;18385;51.572;6.578;2023-07-31T14:15:30;25.70;62.10
31677;DHT22;18385;51.572;6.578;2023-07-31T14:17:57;25.60;62.00
31677;DHT22;18385;51.572;6.578;2023-07-31T14:20:23;25.50;62.10
31677;DHT22;18385;51.572;6.578;2023-07-31T14:22:48;25.40;62.10
31677;DHT22;18385;51.572;6.578;2023-07-31T14:25:14;25.40;62.10
31677;DHT22;18385;51.572;6.578;2023-07-31T14:27:40;25.30;61.90
31677;DHT22;18385;51.572;6.578;2023-07-31T14:30:06;25.20;61.80
31677;DHT22;18385;51.572;6.578;2023-07-31T14:32:32;25.10;62.00
31677;DHT22;18385;51.572;6.578;2023-07-31T14:34:58;25.00;62.00
31677;DHT22;18385;51.572;6.578;2023-07-31T14:37:25;25.00;62.30
31677;DHT22;18385;51.572;6.578;2023-07-31T14:39:51;24.90;62.40
31677;DHT22;18385;51.572;6.578;2023-07-31T14:42:17;24.70;63.10
31677;DHT22;18385;51.572;6.578;2023-07-31T14:44:43;24.50;62.40
31677;DHT22;18385;51.572;6.578;2023-07-31T14:47:09;24.20;62.60
31677;DHT22;18385;51.572;6.578;2023-07-31T14:49:35;24.00;63.10
31677;DHT22;18385;51.572;6.578;2023-07-31T14:52:00;23.90;63.40
31677;DHT22;18385;51.572;6.578;2023-07-31T14:54:26;23.80;63.70
31677;DHT22;18385;51.572;6.578;2023-07-31T14:56:51;23.70;63.90
31677;DHT22;18385;51.572;6.578;2023-07-31T14:59:17;23.50;64.10
31677;DHT22;18385;51.572;6.578;2023-07-31T15:01:43;23.40;64.30
31677;DHT22;18385;51.572;6.578;2023-07-31T15:04:08;23.20;64.50
31677;DHT22;18385;51.572;6.578;2023-07-31T15:06:34;23.10;64.60
31677;DHT22;18385;51.572;6.578;2023-07-31T15:08:59;23.10;64.80
31677;DHT22;18385;51.572;6.578;2023-07-31T15:11:25;23.00;64.90
31677;DHT22;18385;51.572;6.578;2023-07-31T15:13:51;22.90;65.20
31677;DHT22;18385;51.572;6.578;2023-07-31T15:16:16;23.00;65.40
31677;DHT22;18385;51.572;6.578;2023-07-31T15:18:42;23.10;65.30
31677;DHT22;18385;51.572;6.578;2023-07-31T15:21:17;23.00;65.20
31677;DHT22;18385;51.572;6.578;2023-07-31T15:23:58;23.00;65.30
31677;DHT22;18385;51.572;6.578;2023-07-31T15:26:29;22.90;65.20
31677;DHT22;18385;51.572;6.578;2023-07-31T15:33:20;22.70;66.00
31677;DHT22;18385;51.572;6.578;2023-07-31T15:36:27;22.70;66.10
31677;DHT22;18385;51.572;6.578;2023-07-31T15:38:55;22.80;66.20
31677;DHT22;18385;51.572;6.578;2023-07-31T15:41:52;22.80;66.10
31677;DHT22;18385;51.572;6.578;2023-07-31T15:44:22;22.90;66.10
31677;DHT22;18385;51.572;6.578;2023-07-31T15:46:49;22.90;65.90